createdAt,value
2018-12-27T00:34:27.883Z,21.27
2018-12-27T00:37:05.968Z,20.73
2018-12-27T00:43:03.808Z,20.03
2018-12-27T00:53:14.201Z,20.03
2018-12-27T01:05:51.981Z,20.20
2018-12-27T01:14:34.023Z,20.57
2018-12-27T01:17:02.810Z,20.67
2018-12-27T01:19:31.538Z,21.57
2018-12-27T01:22:00.361Z,26.87
2018-12-27T01:24:29.766Z,24.40
2018-12-27T01:26:58.353Z,20.77
2018-12-27T01:29:27.001Z,20.23
2018-12-27T01:31:55.665Z,20.03
2018-12-27T01:34:24.457Z,20.67
2018-12-27T01:36:53.025Z,20.13
2018-12-27T01:39:21.644Z,20.47
2018-12-27T01:41:50.245Z,21.53
2018-12-27T01:44:18.825Z,20.83
2018-12-27T01:46:47.707Z,19.67
2018-12-27T01:49:16.294Z,21.30
2018-12-27T01:51:45.193Z,20.03
2018-12-27T01:54:13.883Z,19.70
2018-12-27T01:56:42.477Z,19.30
2018-12-27T01:59:11.141Z,20.77
2018-12-27T02:01:39.822Z,21.33
2018-12-27T02:04:08.457Z,19.90
2018-12-27T02:06:37.045Z,19.87
2018-12-27T02:09:05.661Z,21.10
2018-12-27T02:11:34.258Z,17.13
2018-12-27T02:14:02.941Z,21.40
2018-12-27T02:16:31.717Z,21.97
2018-12-27T02:19:00.337Z,19.30
2018-12-27T02:21:28.998Z,19.80
2018-12-27T02:23:57.596Z,19.67
2018-12-27T02:26:26.474Z,22.73
2018-12-27T02:28:55.142Z,19.27
2018-12-27T02:31:23.714Z,19.77
2018-12-27T02:33:52.322Z,22.13
2018-12-27T02:36:23.957Z,19.50
2018-12-27T02:38:52.485Z,20.10
2018-12-27T02:41:21.152Z,20.50
2018-12-27T02:43:49.819Z,19.37
2018-12-27T02:46:18.459Z,18.43
2018-12-27T02:48:47.078Z,20.17
2018-12-27T02:51:15.984Z,21.97
2018-12-27T02:53:44.585Z,19.27
2018-12-27T02:56:13.169Z,19.93
2018-12-27T02:58:42.002Z,18.23
2018-12-27T03:01:10.728Z,20.20
2018-12-27T03:03:43.754Z,22.00
2018-12-27T03:06:09.644Z,19.00
2018-12-27T03:08:38.275Z,19.70
2018-12-27T03:11:06.848Z,20.90
2018-12-27T03:13:35.541Z,20.33
2018-12-27T03:16:04.178Z,17.00
2018-12-27T03:18:32.773Z,18.33
2018-12-27T03:21:01.434Z,19.53
2018-12-27T03:23:30.109Z,19.13
2018-12-27T03:25:58.842Z,19.80
2018-12-27T03:28:27.670Z,19.00
2018-12-27T03:30:56.270Z,19.97
2018-12-27T03:33:24.930Z,19.73
2018-12-27T03:35:53.562Z,20.57
2018-12-27T03:38:22.182Z,20.67
2018-12-27T03:40:50.825Z,20.57
2018-12-27T03:43:19.410Z,18.97
2018-12-27T03:45:48.033Z,19.03
2018-12-27T03:48:16.672Z,18.43
2018-12-27T03:50:45.374Z,19.80
2018-12-27T03:53:14.286Z,18.43
2018-12-27T03:55:42.910Z,22.03
2018-12-27T03:58:11.506Z,19.30
2018-12-27T04:00:40.137Z,18.17
2018-12-27T04:03:14.389Z,19.33
2018-12-27T04:05:42.990Z,18.03
2018-12-27T04:08:11.989Z,17.63
2018-12-27T04:10:40.677Z,19.37
2018-12-27T04:13:09.853Z,17.90
2018-12-27T04:15:38.337Z,16.63
2018-12-27T04:18:06.838Z,18.97
2018-12-27T04:20:35.543Z,18.87
2018-12-27T04:23:04.225Z,18.63
2018-12-27T04:25:32.897Z,19.30
2018-12-27T04:28:01.511Z,17.83
2018-12-27T04:30:30.717Z,17.20
2018-12-27T04:32:59.918Z,16.97
2018-12-27T04:35:28.561Z,18.20
2018-12-27T04:37:57.196Z,18.37
2018-12-27T04:40:25.757Z,18.50
2018-12-27T04:42:54.688Z,18.93
2018-12-27T04:45:23.279Z,18.50
2018-12-27T04:47:51.853Z,16.13
2018-12-27T04:50:20.571Z,17.90
2018-12-27T04:52:49.088Z,16.77
2018-12-27T04:55:17.689Z,17.90
2018-12-27T04:57:46.371Z,18.03
2018-12-27T05:00:15.494Z,18.80
2018-12-27T05:02:44.252Z,19.17
2018-12-27T05:05:13.132Z,16.27
2018-12-27T05:07:41.751Z,21.47
2018-12-27T05:10:10.416Z,18.90
2018-12-27T05:12:39.158Z,19.00
2018-12-27T05:15:07.889Z,18.37
2018-12-27T05:17:36.484Z,17.90
2018-12-27T05:20:05.147Z,19.60
2018-12-27T05:22:33.774Z,19.07
2018-12-27T05:25:02.431Z,20.90
2018-12-27T05:27:31.086Z,20.50
2018-12-27T05:29:59.867Z,17.27
2018-12-27T05:32:28.521Z,18.27
2018-12-27T05:34:57.113Z,19.57
2018-12-27T05:37:25.827Z,18.03
2018-12-27T05:39:54.373Z,19.80
2018-12-27T05:42:23.013Z,17.10
2018-12-27T05:44:51.549Z,18.17
2018-12-27T05:47:20.109Z,19.63
2018-12-27T05:49:48.892Z,19.27
2018-12-27T05:52:17.449Z,17.80
2018-12-27T05:54:46.825Z,18.23
2018-12-27T05:57:16.480Z,19.67
2018-12-27T05:59:45.047Z,17.67
2018-12-27T06:02:13.626Z,22.03
2018-12-27T06:04:42.225Z,19.03
2018-12-27T06:07:10.902Z,18.97
2018-12-27T06:09:39.415Z,20.20
2018-12-27T06:12:08.120Z,20.27
2018-12-27T06:14:36.779Z,19.83
2018-12-27T06:17:05.505Z,22.37
2018-12-27T06:19:34.168Z,23.00
2018-12-27T06:22:02.714Z,19.30
2018-12-27T06:24:31.222Z,19.07
2018-12-27T06:26:59.961Z,20.87
2018-12-27T06:29:28.509Z,20.33
2018-12-27T06:31:57.015Z,18.30
2018-12-27T06:34:25.598Z,18.20
2018-12-27T06:36:54.198Z,19.47
2018-12-27T06:39:24.539Z,18.03
2018-12-27T06:41:55.485Z,19.03
2018-12-27T06:44:24.163Z,20.37
2018-12-27T06:46:53.821Z,27.20
2018-12-27T06:49:22.525Z,19.20
2018-12-27T06:51:51.067Z,19.60
2018-12-27T06:54:19.762Z,19.33
2018-12-27T06:56:48.402Z,18.03
2018-12-27T06:59:17.013Z,20.80
2018-12-27T07:01:45.574Z,18.63
2018-12-27T07:04:14.121Z,18.57
2018-12-27T07:06:42.791Z,18.10
2018-12-27T07:09:11.768Z,19.37
2018-12-27T07:11:40.573Z,19.90
2018-12-27T07:14:09.177Z,17.60
2018-12-27T07:16:39.099Z,22.03
2018-12-27T07:19:07.778Z,21.07
2018-12-27T07:21:36.417Z,18.43
2018-12-27T07:24:05.005Z,19.17
2018-12-27T07:26:33.651Z,19.20
2018-12-27T07:29:02.223Z,21.10
2018-12-27T07:31:30.862Z,18.90
2018-12-27T07:33:59.419Z,17.27
2018-12-27T07:36:28.230Z,17.93
2018-12-27T07:38:56.781Z,16.80
2018-12-27T07:41:25.425Z,13.93
2018-12-27T07:43:54.201Z,17.57
2018-12-27T07:46:22.698Z,20.13
2018-12-27T07:48:51.335Z,21.47
2018-12-27T07:51:19.897Z,17.33
2018-12-27T07:53:48.610Z,19.43
2018-12-27T10:23:34.039Z,13.17
2018-12-27T10:26:03.063Z,14.03
2018-12-27T10:28:42.972Z,11.63
2018-12-27T10:31:18.213Z,13.20
2018-12-27T10:33:47.247Z,11.27
2018-12-27T10:36:38.301Z,10.77
2018-12-27T10:40:22.766Z,10.57
2018-12-27T10:43:48.091Z,13.07
2018-12-27T10:47:07.583Z,11.90
2018-12-27T14:48:05.433Z,8.50
2018-12-27T14:50:34.602Z,9.70
2018-12-27T14:53:03.602Z,12.30
2018-12-27T14:55:32.403Z,19.40
2018-12-27T14:58:01.101Z,19.27
2018-12-27T15:00:32.865Z,13.83
2018-12-27T15:03:01.782Z,14.03
2018-12-27T15:05:32.317Z,16.17
2018-12-27T15:08:01.177Z,16.07
2018-12-27T15:10:30.171Z,13.03
2018-12-27T15:12:59.123Z,12.30
2018-12-27T15:15:28.056Z,11.70
2018-12-27T15:17:57.032Z,11.63
2018-12-27T15:20:25.668Z,18.63
2018-12-27T15:23:02.074Z,16.10
2018-12-27T15:25:31.129Z,14.90
2018-12-27T15:27:59.867Z,13.53
2018-12-27T15:37:11.009Z,12.53
2018-12-27T15:39:45.549Z,15.10
2018-12-27T15:42:22.398Z,15.60
2018-12-27T15:45:01.926Z,18.70
2018-12-27T15:47:36.402Z,14.97
2018-12-27T15:50:40.630Z,13.40
2018-12-27T15:53:10.667Z,12.47
2018-12-27T15:55:45.912Z,17.77
2018-12-27T15:58:17.303Z,15.30
2018-12-27T16:00:49.532Z,14.10
2018-12-27T16:03:18.667Z,16.30
2018-12-27T16:05:49.980Z,16.10
2018-12-27T16:08:21.189Z,32.03
2018-12-27T16:10:53.033Z,49.10
2018-12-27T16:13:21.123Z,29.07
2018-12-27T16:15:51.871Z,18.77
2018-12-27T16:18:44.640Z,31.80
2018-12-27T16:21:32.641Z,24.40
2018-12-27T16:24:01.344Z,30.87
2018-12-27T16:26:30.082Z,17.90
2018-12-27T16:28:58.908Z,16.77
2018-12-27T16:31:27.557Z,16.73
2018-12-27T16:33:56.369Z,17.77
2018-12-27T16:36:59.109Z,18.70
2018-12-27T16:40:02.635Z,17.00
